Lisbon, Indiana
Current Conditions -  °F | °C
As of 4:35 PM on Monday 24 Nov 2014 (Local Time) from KGWB Reporting Station
Overcast Overcast  
Wind Chill: 25°   Ceiling: 2100
Heat Index: 36°   Visibility: 7mi
Dew Point: 28°   Wind: 20mph
Humidity: 75%   Direction: 220°SW
Pressure: 29.58"   Gusts: 33mph
Location:  41.4608°N, 85.2531°W
Report Text: KGWB 242135Z AUTO 22017G29KT 185V265 7SM BKN021 OVC029 02/M02 A2958 RMK AO2
Loading
Personal Weather Stations






























Interactive Weather Map New forecast layout! Learn more

10-Day Weather Forecast

Advertisements
Track Severe Weather on mobile